Time;durP1;ratioP1;P1;durP2;ratioP2;P2;SDS_P1;SDS_P2;PMS_P1;PMS_P2;Temp;Humidity;BMP_temperature;BMP_pressure;BME280_temperature;BME280_humidity;BME280_pressure;Samples;Min_cycle;Max_cycle;Signal;HPM_P1;HPM_P2
2023/04/26 00:01:46;;;;;;;0.50;0.50;;;;;;;12.80;100.00;97267.53;5054422;28;20197;-62
2023/04/26 00:04:12;;;;;;;0.80;0.40;;;;;;;12.73;100.00;97244.88;5054474;28;20552;-62
2023/04/26 00:06:38;;;;;;;1.38;0.63;;;;;;;12.96;100.00;97277.28;5050865;28;20205;-62
2023/04/26 00:09:04;;;;;;;0.70;0.70;;;;;;;12.98;100.00;97277.94;5052078;28;20186;-62
2023/04/26 00:11:29;;;;;;;0.70;0.70;;;;;;;13.00;100.00;97278.63;5051958;28;20664;-62
2023/04/26 00:13:57;;;;;;;0.63;0.60;;;;;;;12.61;100.00;97201.94;5051999;28;20594;-62
2023/04/26 00:16:22;;;;;;;0.57;0.57;;;;;;;13.08;100.00;97276.09;5051881;28;20202;-61
2023/04/26 00:18:48;;;;;;;0.50;0.50;;;;;;;12.54;100.00;97183.53;5051847;28;20173;-62
2023/04/26 00:21:13;;;;;;;0.50;0.50;;;;;;;12.95;100.00;97239.28;5051712;28;20708;-61
2023/04/26 00:23:39;;;;;;;1.02;0.70;;;;;;;13.03;100.00;97257.53;5051725;28;20186;-61
2023/04/26 00:26:05;;;;;;;1.02;0.52;;;;;;;12.84;100.00;97223.91;5051710;28;20186;-61
2023/04/26 00:28:30;;;;;;;0.60;0.60;;;;;;;12.53;100.00;97173.31;5051591;28;20260;-61
2023/04/26 00:30:56;;;;;;;0.40;0.40;;;;;;;12.64;100.00;97199.03;5051634;28;20279;-61
2023/04/26 00:33:25;;;;;;;1.52;0.50;;;;;;;12.41;100.00;97167.53;5051443;28;20194;-61
2023/04/26 00:35:50;;;;;;;0.98;0.60;;;;;;;12.59;100.00;97201.25;5051480;28;20243;-62
2023/04/26 00:38:16;;;;;;;0.63;0.63;;;;;;;12.34;100.00;97157.88;5053132;28;20198;-62
2023/04/26 00:40:41;;;;;;;0.40;0.40;;;;;;;12.64;100.00;97215.44;5051266;28;20646;-61
2023/04/26 00:43:07;;;;;;;0.93;0.47;;;;;;;12.24;100.00;97141.53;5051472;28;20190;-61
2023/04/26 00:45:34;;;;;;;0.60;0.60;;;;;;;12.20;100.00;97146.22;5051401;28;20182;-61
2023/04/26 00:48:00;;;;;;;0.70;0.70;;;;;;;12.15;100.00;97132.91;5051261;28;20186;-61
2023/04/26 00:50:26;;;;;;;0.70;0.70;;;;;;;12.46;100.00;97195.59;5051278;28;20247;-61
2023/04/26 00:52:51;;;;;;;0.50;0.50;;;;;;;12.26;100.00;97171.56;5011357;28;20195;-61
2023/04/26 00:55:20;;;;;;;0.70;0.70;;;;;;;12.08;100.00;97136.22;5011470;28;20697;-62
2023/04/26 00:57:45;;;;;;;0.73;0.73;;;;;;;12.23;100.00;97160.66;5011349;28;20293;-61
2023/04/26 01:00:11;;;;;;;1.10;0.82;;;;;;;12.44;100.00;97189.75;5011395;28;20266;-61
2023/04/26 01:02:37;;;;;;;0.60;0.60;;;;;;;12.27;100.00;97164.63;5011284;28;20301;-62
2023/04/26 01:05:04;;;;;;;0.70;0.70;;;;;;;12.04;100.00;97116.72;5011351;28;20175;-62
2023/04/26 01:07:30;;;;;;;0.70;0.70;;;;;;;12.59;100.00;97190.88;5011159;28;20199;-60
2023/04/26 01:09:58;;;;;;;1.02;1.02;;;;;;;12.72;100.00;97212.13;5011265;28;20724;-61
2023/04/26 01:12:24;;;;;;;1.02;1.02;;;;;;;12.42;100.00;97157.97;5027008;28;20215;-61
2023/04/26 01:14:50;;;;;;;1.63;0.70;;;;;;;12.13;100.00;97124.44;5030894;28;20671;-61
2023/04/26 01:17:16;;;;;;;1.27;0.95;;;;;;;12.36;100.00;97159.34;5030653;28;20189;-61
2023/04/26 01:19:48;;;;;;;0.85;0.85;;;;;;;12.23;100.00;97158.06;5030851;28;20265;-61
2023/04/26 01:22:15;;;;;;;1.85;1.75;;;;;;;12.28;100.00;97190.41;5030727;28;20264;-61
2023/04/26 01:24:43;;;;;;;2.35;0.90;;;;;;;11.86;100.00;97141.78;5049234;28;20243;-61
2023/04/26 01:27:09;;;;;;;0.70;0.70;;;;;;;11.46;100.00;97094.59;5052982;28;20269;-61
2023/04/26 01:29:34;;;;;;;1.58;1.50;;;;;;;11.62;100.00;97142.28;5052904;28;20260;-61
2023/04/26 01:32:00;;;;;;;1.58;1.45;;;;;;;11.48;100.00;97118.56;5052906;28;20200;-61
2023/04/26 01:34:25;;;;;;;1.40;1.40;;;;;;;11.82;100.00;97174.09;5070295;28;20182;-61
2023/04/26 01:36:51;;;;;;;2.20;1.50;;;;;;;11.57;100.00;97138.44;5070407;28;20790;-61
2023/04/26 01:39:16;;;;;;;1.45;1.10;;;;;;;11.66;100.00;97179.91;5070319;28;20734;-61
2023/04/26 01:41:42;;;;;;;1.00;1.00;;;;;;;11.75;100.00;97178.22;5070243;28;20201;-61
2023/04/26 01:44:07;;;;;;;2.30;1.00;;;;;;;11.68;100.00;97180.56;5070271;28;20185;-61
2023/04/26 01:46:35;;;;;;;2.28;1.10;;;;;;;11.70;100.00;97170.06;5070229;28;20633;-61
2023/04/26 01:49:01;;;;;;;2.33;1.95;;;;;;;11.49;100.00;97120.22;5070197;28;20292;-61
2023/04/26 01:51:26;;;;;;;1.42;1.33;;;;;;;11.42;100.00;97088.88;5070190;28;20699;-61
2023/04/26 01:53:54;;;;;;;1.05;0.98;;;;;;;11.18;100.00;97057.50;5070111;28;20266;-61
2023/04/26 01:56:22;;;;;;;0.65;0.65;;;;;;;11.09;100.00;97060.13;5070113;28;20208;-61
2023/04/26 01:58:48;;;;;;;0.88;0.75;;;;;;;11.66;100.00;97150.56;5069875;28;20193;-61
2023/04/26 02:01:13;;;;;;;0.85;0.85;;;;;;;11.20;100.00;97065.13;5069992;28;20235;-61
2023/04/26 02:03:39;;;;;;;0.88;0.88;;;;;;;11.36;100.00;97104.16;5070050;28;20176;-61
2023/04/26 02:06:05;;;;;;;1.27;0.80;;;;;;;11.50;100.00;97112.28;5034442;28;20187;-61
2023/04/26 02:08:30;;;;;;;2.42;0.70;;;;;;;11.59;100.00;97115.84;5029890;28;20574;-61
2023/04/26 02:10:56;;;;;;;2.45;0.80;;;;;;;11.94;100.00;97165.19;5030007;28;20190;-61
2023/04/26 02:13:21;;;;;;;0.70;0.70;;;;;;;11.98;100.00;97148.41;5029963;28;20174;-61
2023/04/26 02:15:48;;;;;;;0.80;0.80;;;;;;;11.93;100.00;97129.88;5029962;28;20228;-61
2023/04/26 02:18:14;;;;;;;0.70;0.70;;;;;;;11.85;100.00;97116.81;5029820;28;20179;-61
2023/04/26 02:20:44;;;;;;;0.85;0.80;;;;;;;12.26;100.00;97153.41;5029842;28;20252;-61
2023/04/26 02:23:10;;;;;;;1.23;0.73;;;;;;;12.03;100.00;97115.88;5029759;28;20569;-61
2023/04/26 02:25:36;;;;;;;1.08;0.98;;;;;;;12.38;100.00;97172.19;5029802;28;20190;-61
2023/04/26 02:28:02;;;;;;;0.80;0.80;;;;;;;12.28;100.00;97150.69;5030040;28;20627;-61
2023/04/26 02:30:28;;;;;;;3.40;1.70;;;;;;;11.90;100.00;97093.88;5035920;28;20277;-61
2023/04/26 02:32:53;;;;;;;2.42;0.93;;;;;;;11.95;100.00;97102.84;5036406;28;20224;-61
2023/04/26 02:35:19;;;;;;;0.90;0.90;;;;;;;11.95;100.00;97099.41;5036362;28;20565;-61
2023/04/26 02:37:47;;;;;;;0.70;0.70;;;;;;;12.46;100.00;97185.22;5053640;28;20273;-61
2023/04/26 02:40:13;;;;;;;1.00;1.00;;;;;;;12.43;100.00;97169.97;5058634;28;20646;-61
2023/04/26 02:42:39;;;;;;;1.42;1.27;;;;;;;11.98;100.00;97104.34;5055991;28;20213;-61
2023/04/26 02:45:06;;;;;;;0.93;0.93;;;;;;;12.39;100.00;97176.41;5056244;28;20656;-61
2023/04/26 02:47:31;;;;;;;1.10;1.10;;;;;;;12.02;100.00;97106.47;5056212;28;20205;-61
2023/04/26 02:49:57;;;;;;;0.90;0.90;;;;;;;12.06;100.00;97118.19;5056199;28;20670;-61
2023/04/26 02:52:22;;;;;;;1.15;1.13;;;;;;;12.50;100.00;97182.22;5056151;28;20601;-61
2023/04/26 02:54:48;;;;;;;1.13;1.02;;;;;;;12.21;100.00;97152.22;5056094;28;20197;-61
2023/04/26 02:57:13;;;;;;;0.90;0.90;;;;;;;12.33;100.00;97162.25;5055971;28;20192;-61
2023/04/26 02:59:38;;;;;;;1.02;1.02;;;;;;;12.60;100.00;97203.72;5056200;28;20174;-61
2023/04/26 03:02:04;;;;;;;2.33;1.40;;;;;;;11.97;100.00;97116.47;5056192;28;20664;-61
2023/04/26 03:04:32;;;;;;;2.15;1.27;;;;;;;12.50;100.00;97202.16;5056089;28;20188;-61
2023/04/26 03:06:58;;;;;;;1.27;1.10;;;;;;;12.05;100.00;97120.94;5016109;28;20187;-61
2023/04/26 03:09:23;;;;;;;1.50;1.50;;;;;;;12.25;100.00;97151.78;5016221;28;20187;-61
2023/04/26 03:11:49;;;;;;;0.90;0.90;;;;;;;12.35;100.00;97178.47;5016259;28;20191;-61
2023/04/26 03:14:14;;;;;;;1.20;1.20;;;;;;;12.17;100.00;97149.13;5031175;28;20277;-61
2023/04/26 03:16:41;;;;;;;1.33;1.33;;;;;;;12.25;100.00;97156.16;5035969;28;20256;-61
2023/04/26 03:19:07;;;;;;;1.20;1.20;;;;;;;12.41;100.00;97172.72;5035997;28;20702;-61
2023/04/26 03:21:32;;;;;;;1.40;1.40;;;;;;;12.41;100.00;97166.69;5035881;28;20277;-62
2023/04/26 03:23:58;;;;;;;1.70;1.60;;;;;;;12.38;100.00;97182.56;5035923;28;20261;-61
2023/04/26 03:26:23;;;;;;;1.70;1.60;;;;;;;11.96;100.00;97135.56;5035901;28;20221;-61
2023/04/26 03:28:48;;;;;;;1.80;1.70;;;;;;;12.19;100.00;97167.13;5035905;28;20273;-61
2023/04/26 03:31:14;;;;;;;2.00;1.90;;;;;;;12.00;100.00;97173.22;5036178;28;20253;-61
2023/04/26 03:33:39;;;;;;;1.80;1.70;;;;;;;11.50;100.00;97091.56;5035843;28;20225;-61
2023/04/26 03:36:05;;;;;;;2.35;1.55;;;;;;;11.97;100.00;97151.94;5035674;28;20193;-61
2023/04/26 03:38:31;;;;;;;2.45;1.45;;;;;;;11.96;100.00;97139.97;5050579;28;20186;-61
2023/04/26 03:40:56;;;;;;;1.48;1.48;;;;;;;11.85;100.00;97114.22;5053749;28;20194;-61
2023/04/26 03:43:22;;;;;;;3.90;1.92;;;;;;;12.44;100.00;97194.94;5052557;28;20169;-61
2023/04/26 03:45:48;;;;;;;1.90;1.80;;;;;;;12.15;100.00;97165.78;5052579;28;20197;-62
2023/04/26 03:48:14;;;;;;;2.75;1.33;;;;;;;11.84;100.00;97143.69;5052473;28;20696;-61
2023/04/26 03:50:40;;;;;;;3.13;1.67;;;;;;;11.66;100.00;97117.72;5052374;28;20185;-61
2023/04/26 03:53:05;;;;;;;1.67;1.58;;;;;;;11.87;100.00;97203.84;5052380;28;20182;-61
2023/04/26 03:55:30;;;;;;;1.92;1.83;;;;;;;11.77;100.00;97194.44;5052360;28;20692;-61
2023/04/26 03:57:56;;;;;;;1.92;1.83;;;;;;;11.87;100.00;97203.00;5052125;28;20193;-61
2023/04/26 04:00:21;;;;;;;4.43;1.92;;;;;;;11.66;100.00;97153.16;5032157;28;20194;-60
2023/04/26 04:02:47;;;;;;;2.45;2.25;;;;;;;11.82;100.00;97167.16;5032208;28;20597;-61
2023/04/26 04:05:13;;;;;;;2.78;2.25;;;;;;;11.92;100.00;97183.50;5032171;28;20234;-61
2023/04/26 04:07:38;;;;;;;2.30;2.10;;;;;;;12.11;100.00;97208.50;5046823;28;20599;-61
2023/04/26 04:10:04;;;;;;;3.13;2.40;;;;;;;12.09;100.00;97213.03;5051995;28;20188;-61
2023/04/26 04:12:29;;;;;;;2.88;2.10;;;;;;;12.18;100.00;97214.72;5051902;28;20186;-61
2023/04/26 04:14:55;;;;;;;2.10;2.00;;;;;;;12.21;100.00;97217.06;5051885;28;20227;-61
2023/04/26 04:17:20;;;;;;;3.42;2.47;;;;;;;11.77;100.00;97134.84;5051858;28;20269;-61
2023/04/26 04:19:45;;;;;;;2.17;2.08;;;;;;;11.98;100.00;97169.13;5052108;28;20178;-61
2023/04/26 04:22:11;;;;;;;2.63;2.42;;;;;;;12.29;100.00;97217.97;5051844;28;20676;-61
2023/04/26 04:24:37;;;;;;;2.47;2.38;;;;;;;11.92;100.00;97154.97;5051750;28;20197;-61
2023/04/26 04:27:02;;;;;;;5.90;2.80;;;;;;;12.23;100.00;97215.13;5051660;28;20260;-61
2023/04/26 04:29:28;;;;;;;2.78;2.58;;;;;;;12.12;100.00;97171.22;5051620;28;20182;-61
2023/04/26 04:31:54;;;;;;;1.60;1.50;;;;;;;11.97;100.00;97139.00;5051573;28;20192;-61
2023/04/26 04:34:20;;;;;;;1.10;1.10;;;;;;;11.88;100.00;97129.47;5051573;28;20209;-61
2023/04/26 04:36:45;;;;;;;1.13;1.05;;;;;;;12.26;100.00;97188.91;5051679;28;20595;-61
2023/04/26 04:39:15;;;;;;;1.92;1.35;;;;;;;12.05;100.00;97159.81;5071253;28;20283;-61
2023/04/26 04:41:47;;;;;;;1.45;1.35;;;;;;;12.25;100.00;97182.91;5071308;28;20307;-61
2023/04/26 04:44:15;;;;;;;3.20;1.02;;;;;;;12.41;100.00;97203.00;5071337;28;20687;-61
2023/04/26 04:46:41;;;;;;;6.75;1.40;;;;;;;12.22;100.00;97175.44;5071316;28;20557;-62
2023/04/26 04:49:08;;;;;;;2.08;1.40;;;;;;;12.45;100.00;97206.97;5071301;28;20296;-62
2023/04/26 04:51:34;;;;;;;1.00;1.00;;;;;;;12.47;100.00;97213.63;5030725;28;20291;-62
2023/04/26 04:54:17;;;;;;;1.17;1.13;;;;;;;12.27;100.00;97173.22;5031292;28;20191;-62
2023/04/26 04:56:43;;;;;;;1.92;1.20;;;;;;;12.18;100.00;97134.34;5031366;28;20244;-62
2023/04/26 04:59:09;;;;;;;1.70;1.60;;;;;;;12.20;100.00;97122.06;5031155;28;20212;-61
2023/04/26 05:01:36;;;;;;;1.10;1.10;;;;;;;12.39;100.00;97150.47;5031150;28;20221;-61
2023/04/26 05:04:02;;;;;;;1.40;1.40;;;;;;;12.59;100.00;97175.31;5031038;28;20693;-61
2023/04/26 05:06:28;;;;;;;1.80;0.80;;;;;;;12.42;100.00;97157.97;5031063;28;20202;-61
2023/04/26 05:08:55;;;;;;;1.00;1.00;;;;;;;12.72;100.00;97192.16;5031241;28;20205;-61
2023/04/26 05:11:20;;;;;;;1.23;1.17;;;;;;;12.34;100.00;97124.16;5030983;28;20194;-61
2023/04/26 05:13:47;;;;;;;1.50;1.40;;;;;;;12.73;100.00;97173.03;5030971;28;20618;-61
2023/04/26 05:16:13;;;;;;;1.70;1.60;;;;;;;12.97;100.00;97201.84;5031138;28;20193;-61
2023/04/26 05:18:38;;;;;;;1.42;1.40;;;;;;;12.79;100.00;97185.44;5030843;28;20191;-61
2023/04/26 05:21:04;;;;;;;1.42;1.35;;;;;;;12.95;100.00;97187.34;5030723;28;20235;-61
2023/04/26 05:23:30;;;;;;;1.52;1.42;;;;;;;13.06;100.00;97171.56;5050440;28;20190;-61
2023/04/26 05:25:55;;;;;;;1.38;1.27;;;;;;;13.04;100.00;97156.13;5053037;28;20646;-61
2023/04/26 05:28:21;;;;;;;2.30;1.52;;;;;;;13.05;100.00;97156.94;5052981;28;20173;-61
2023/04/26 05:30:46;;;;;;;1.98;1.20;;;;;;;13.39;100.00;97199.41;5052755;28;20177;-61
2023/04/26 05:33:12;;;;;;;1.05;1.05;;;;;;;13.11;100.00;97143.34;5052465;28;20177;-61
2023/04/26 05:35:38;;;;;;;2.75;1.20;;;;;;;13.22;100.00;97169.06;5052368;28;20185;-61
2023/04/26 05:38:03;;;;;;;2.90;1.10;;;;;;;13.09;100.00;97134.91;5052582;28;20177;-62
2023/04/26 05:40:29;;;;;;;1.45;1.35;;;;;;;13.31;100.00;97173.38;5052611;28;20208;-62
2023/04/26 05:42:54;;;;;;;1.20;1.20;;;;;;;13.41;100.00;97189.69;5052379;28;20205;-60
2023/04/26 05:45:20;;;;;;;3.47;1.40;;;;;;;13.05;100.00;97123.19;5052125;28;20174;-60
2023/04/26 05:47:46;;;;;;;1.25;1.17;;;;;;;13.71;100.00;97208.22;5052339;28;20173;-60
2023/04/26 05:50:12;;;;;;;1.00;1.00;;;;;;;13.79;100.00;97205.69;5052560;28;20228;-60
2023/04/26 05:52:37;;;;;;;3.03;2.17;;;;;;;13.85;100.00;97188.66;5052513;28;20177;-60
2023/04/26 05:55:03;;;;;;;1.10;1.10;;;;;;;13.95;100.00;97178.97;5052440;28;20177;-60
2023/04/26 05:57:29;;;;;;;2.00;1.63;;;;;;;13.89;100.00;97177.78;5052160;28;20207;-60
2023/04/26 05:59:55;;;;;;;2.42;2.13;;;;;;;14.08;100.00;97187.97;5052422;28;20747;-60
2023/04/26 06:02:20;;;;;;;2.60;2.40;;;;;;;13.88;100.00;97167.56;5052169;28;20591;-60
2023/04/26 06:04:46;;;;;;;2.35;1.92;;;;;;;13.96;100.00;97159.78;5050476;28;20643;-61
2023/04/26 06:07:11;;;;;;;2.60;1.40;;;;;;;13.98;100.00;97137.03;5052269;28;20193;-61
2023/04/26 06:09:37;;;;;;;1.42;1.30;;;;;;;14.65;100.00;97215.03;5052345;28;20633;-61
2023/04/26 06:12:03;;;;;;;7.25;2.83;;;;;;;14.40;100.00;97137.84;5052258;28;20679;-61
2023/04/26 06:14:46;;;;;;;5.00;3.50;;;;;;;14.82;100.00;97172.41;5052211;28;20615;-61
2023/04/26 06:17:12;;;;;;;5.50;2.88;;;;;;;15.14;100.00;97206.28;5052199;28;20180;-61
2023/04/26 06:19:37;;;;;;;5.55;2.58;;;;;;;15.31;100.00;97215.75;5052153;28;20178;-61
2023/04/26 06:22:02;;;;;;;8.77;3.33;;;;;;;15.34;100.00;97198.00;5052068;28;20727;-61
2023/04/26 06:24:29;;;;;;;6.47;2.97;;;;;;;15.54;100.00;97204.53;5052117;28;20188;-60
2023/04/26 06:26:54;;;;;;;4.28;2.65;;;;;;;15.85;100.00;97231.53;5052065;28;20181;-61
2023/04/26 06:32:41;;;;;;;5.28;2.85;;;;;;;15.87;100.00;97181.81;5051894;28;20205;-61
2023/04/26 06:35:07;;;;;;;7.22;3.10;;;;;;;16.10;100.00;97212.22;5052017;28;20173;-61
2023/04/26 06:37:34;;;;;;;4.72;2.67;;;;;;;15.81;100.00;97143.34;5051982;28;20174;-61
2023/04/26 06:40:00;;;;;;;4.10;2.83;;;;;;;16.00;100.00;97156.81;5051893;28;20184;-61
2023/04/26 06:42:26;;;;;;;6.20;3.30;;;;;;;16.38;100.00;97236.13;5051903;28;20197;-61
2023/04/26 06:44:52;;;;;;;8.18;3.45;;;;;;;15.82;100.00;97158.00;5051983;28;20564;-60
2023/04/26 06:47:17;;;;;;;4.25;2.80;;;;;;;16.32;100.00;97231.56;5051983;28;20182;-61
2023/04/26 06:49:42;;;;;;;3.20;2.72;;;;;;;16.50;100.00;97238.19;5051952;28;20170;-61
2023/04/26 06:52:08;;;;;;;4.72;2.53;;;;;;;16.49;100.00;97220.09;5051896;28;20177;-61
2023/04/26 06:54:33;;;;;;;3.75;2.72;;;;;;;16.18;100.00;97162.63;5051896;28;20174;-61
2023/04/26 06:56:59;;;;;;;3.22;2.70;;;;;;;16.05;100.00;97158.91;5051291;28;20182;-61
2023/04/26 06:59:25;;;;;;;4.05;2.67;;;;;;;16.48;100.00;97200.19;5051936;28;20185;-61
2023/04/26 07:01:51;;;;;;;2.20;2.10;;;;;;;16.33;100.00;97160.09;5051461;28;20255;-61
2023/04/26 07:04:17;;;;;;;2.33;2.03;;;;;;;16.54;100.00;97168.97;5051602;28;20643;-61
2023/04/26 07:06:43;;;;;;;2.15;2.05;;;;;;;16.93;100.00;97229.81;5051546;28;20178;-61
2023/04/26 07:09:08;;;;;;;3.50;1.75;;;;;;;16.88;100.00;97197.34;5051524;28;20174;-61
2023/04/26 07:11:34;;;;;;;4.43;2.20;;;;;;;16.96;100.00;97195.50;5050804;28;20227;-61
2023/04/26 07:14:00;;;;;;;1.77;1.67;;;;;;;17.37;100.00;97250.91;5050008;28;20173;-61
2023/04/26 07:16:26;;;;;;;2.70;2.20;;;;;;;17.26;100.00;97233.03;5054591;28;20180;-61
2023/04/26 07:18:51;;;;;;;3.63;2.13;;;;;;;17.06;100.00;97190.03;5055361;28;20562;-61
2023/04/26 07:21:17;;;;;;;4.43;2.35;;;;;;;17.46;100.00;97250.72;5055210;28;20296;-61
2023/04/26 07:23:42;;;;;;;4.03;2.70;;;;;;;17.00;100.00;97175.03;5055233;28;20184;-61
2023/04/26 07:26:12;;;;;;;4.03;2.90;;;;;;;17.03;100.00;97172.91;5055225;28;20177;-61
2023/04/26 07:28:37;;;;;;;2.83;2.50;;;;;;;17.34;100.00;97230.34;5055153;28;20212;-61
2023/04/26 07:31:03;;;;;;;2.42;2.22;;;;;;;17.29;100.00;97211.75;5055142;28;20209;-61
2023/04/26 07:33:29;;;;;;;3.33;2.10;;;;;;;17.25;100.00;97197.41;5072560;28;20746;-62
2023/04/26 07:35:56;;;;;;;2.72;2.03;;;;;;;17.54;100.00;97221.84;5072654;28;20706;-61
2023/04/26 07:38:22;;;;;;;2.67;2.47;;;;;;;17.45;100.00;97185.50;5072499;28;20725;-61
2023/04/26 07:40:47;;;;;;;2.80;2.50;;;;;;;17.42;100.00;97181.44;5072446;28;20189;-61
2023/04/26 07:43:14;;;;;;;2.08;1.92;;;;;;;17.44;100.00;97189.91;5072529;28;20588;-61
2023/04/26 07:45:40;;;;;;;5.25;2.60;;;;;;;17.71;100.00;97240.81;5032398;28;20186;-61
2023/04/26 07:48:05;;;;;;;3.55;2.35;;;;;;;17.37;100.00;97188.16;5012532;28;20190;-61
2023/04/26 07:50:31;;;;;;;3.13;2.80;;;;;;;17.55;100.00;97227.91;5012702;28;20299;-61
2023/04/26 07:52:59;;;;;;;2.90;2.13;;;;;;;17.43;100.00;97243.19;5012584;28;20186;-61
2023/04/26 07:55:25;;;;;;;2.88;2.58;;;;;;;17.53;100.00;97253.41;5012609;28;20688;-61
2023/04/26 07:57:50;;;;;;;4.25;2.42;;;;;;;17.46;100.00;97258.56;5012377;28;20198;-61
2023/04/26 08:00:17;;;;;;;4.65;2.88;;;;;;;16.98;100.00;97177.03;5012509;28;20195;-61
2023/04/26 08:02:45;;;;;;;2.92;2.67;;;;;;;17.21;100.00;97219.66;5012357;28;20218;-62
2023/04/26 08:05:10;;;;;;;6.43;3.50;;;;;;;16.95;100.00;97183.41;5012327;28;20712;-62
2023/04/26 08:07:36;;;;;;;5.03;2.83;;;;;;;17.13;100.00;97228.38;5012404;28;20218;-62
2023/04/26 08:10:01;;;;;;;2.97;2.63;;;;;;;16.85;100.00;97192.47;5012370;28;20261;-62
2023/04/26 08:12:27;;;;;;;3.05;2.75;;;;;;;16.80;100.00;97194.78;5012305;28;20193;-62
2023/04/26 08:14:52;;;;;;;2.90;2.70;;;;;;;16.80;100.00;97186.94;5012227;28;20820;-62
2023/04/26 08:17:18;;;;;;;2.75;2.45;;;;;;;16.81;100.00;97193.81;5027482;28;20662;-62
2023/04/26 08:19:43;;;;;;;3.25;2.75;;;;;;;16.91;100.00;97202.25;5048871;28;20189;-62
2023/04/26 08:22:09;;;;;;;3.20;3.00;;;;;;;16.89;100.00;97205.00;5054163;28;20229;-62
2023/04/26 08:24:34;;;;;;;3.05;2.85;;;;;;;17.20;100.00;97254.63;5054297;28;20613;-62
2023/04/26 08:26:59;;;;;;;4.78;2.92;;;;;;;17.23;100.00;97255.09;5031158;28;20182;-62
2023/04/26 08:29:26;;;;;;;3.13;2.83;;;;;;;17.00;100.00;97206.41;5031840;28;20285;-62
2023/04/26 08:31:52;;;;;;;3.95;3.05;;;;;;;16.91;100.00;97186.56;5031796;28;20198;-62
2023/04/26 08:34:17;;;;;;;3.22;2.90;;;;;;;17.31;100.00;97262.06;5031873;28;20196;-62
2023/04/26 08:36:44;;;;;;;8.18;3.50;;;;;;;17.06;100.00;97210.94;5031767;28;20221;-62
2023/04/26 08:39:13;;;;;;;4.55;3.50;;;;;;;17.43;100.00;97250.25;5031698;28;20763;-62
2023/04/26 08:41:43;;;;;;;4.28;3.88;;;;;;;17.56;100.00;97247.84;5031550;28;20206;-62
2023/04/26 08:44:08;;;;;;;4.88;3.35;;;;;;;17.54;100.00;97231.53;5031546;28;20251;-62
2023/04/26 08:46:51;;;;;;;3.67;3.30;;;;;;;17.29;100.00;97167.28;5031525;28;20653;-62
2023/04/26 08:49:16;;;;;;;4.43;3.08;;;;;;;17.88;100.00;97243.13;5031602;28;20758;-62
2023/04/26 08:51:44;;;;;;;5.53;3.45;;;;;;;18.05;100.00;97235.91;5031459;28;20190;-62
2023/04/26 08:54:10;;;;;;;3.58;2.97;;;;;;;17.82;99.95;97160.13;5031390;28;20178;-62
2023/04/26 08:56:36;;;;;;;3.38;3.10;;;;;;;17.82;97.55;97148.81;5031341;28;20184;-62
2023/04/26 08:59:02;;;;;;;2.90;2.80;;;;;;;18.12;70.82;97184.50;5052343;28;20550;-62
2023/04/26 09:01:29;;;;;;;2.78;2.55;;;;;;;18.32;68.14;97206.53;5053478;28;20211;-62
2023/04/26 09:03:55;;;;;;;2.58;2.40;;;;;;;18.50;68.53;97222.66;5053501;28;20272;-62
2023/04/26 09:06:22;;;;;;;2.80;2.60;;;;;;;18.31;66.66;97184.75;5053432;28;20269;-62
2023/04/26 09:08:51;;;;;;;2.72;2.42;;;;;;;18.49;63.21;97200.88;5053409;28;20594;-62
2023/04/26 09:11:17;;;;;;;5.10;2.92;;;;;;;18.25;63.50;97169.72;5053347;28;20177;-62
2023/04/26 09:13:42;;;;;;;2.60;2.40;;;;;;;18.38;65.47;97174.38;5053325;28;20546;-62
2023/04/26 09:16:08;;;;;;;2.60;2.50;;;;;;;18.63;64.45;97212.34;5053287;28;20173;-62
2023/04/26 09:18:33;;;;;;;3.08;2.88;;;;;;;18.41;67.23;97174.03;5053229;28;20545;-62
2023/04/26 09:21:07;;;;;;;2.85;2.60;;;;;;;18.75;65.60;97224.78;5053101;28;20169;-62
2023/04/26 09:23:33;;;;;;;4.25;2.75;;;;;;;18.61;63.12;97190.75;5053154;28;20166;-62
2023/04/26 09:26:22;;;;;;;2.90;2.70;;;;;;;18.81;64.64;97218.81;5053058;28;20173;-62
2023/04/26 09:28:48;;;;;;;3.38;3.08;;;;;;;18.90;66.86;97222.13;5053373;28;20173;-62
2023/04/26 09:31:38;;;;;;;4.72;3.20;;;;;;;19.01;63.32;97229.50;5053005;28;20184;-62
2023/04/26 09:34:03;;;;;;;3.08;2.88;;;;;;;19.00;64.70;97228.69;5053039;28;20180;-62
2023/04/26 09:36:28;;;;;;;3.15;2.90;;;;;;;18.72;62.33;97161.47;5070329;28;20180;-62
2023/04/26 09:38:55;;;;;;;3.53;2.85;;;;;;;19.07;63.13;97205.16;5070303;28;20199;-62
2023/04/26 09:41:20;;;;;;;3.85;3.53;;;;;;;18.91;62.25;97168.72;5070324;28;20350;-62
2023/04/26 09:43:48;;;;;;;3.25;2.97;;;;;;;18.90;61.80;97161.84;5070348;28;20675;-62
2023/04/26 09:46:22;;;;;;;4.20;3.75;;;;;;;19.11;58.41;97206.44;5070249;28;20187;-62
2023/04/26 09:49:00;;;;;;;5.70;3.08;;;;;;;18.97;58.52;97187.13;5070353;28;20177;-62
2023/04/26 09:51:25;;;;;;;3.80;3.20;;;;;;;19.12;59.01;97221.16;5070252;28;20658;-62
2023/04/26 09:53:51;;;;;;;4.25;3.33;;;;;;;19.10;60.04;97213.47;5070124;28;20191;-62
2023/04/26 09:56:18;;;;;;;3.88;3.55;;;;;;;18.35;60.08;97148.53;5070139;28;20280;-62
2023/04/26 09:58:50;;;;;;;3.38;3.08;;;;;;;18.88;60.16;97232.00;5070107;28;20275;-62
2023/04/26 10:01:18;;;;;;;3.30;2.90;;;;;;;18.55;61.18;97175.78;5070069;28;20212;-62
2023/04/26 10:03:44;;;;;;;4.28;3.80;;;;;;;18.61;60.01;97202.06;5049300;28;20600;-62
2023/04/26 10:06:11;;;;;;;3.50;3.30;;;;;;;18.37;60.83;97181.41;5049123;28;20235;-62
2023/04/26 10:08:37;;;;;;;2.60;2.50;;;;;;;18.41;59.40;97202.81;5029968;28;20304;-62
2023/04/26 10:11:04;;;;;;;3.20;3.00;;;;;;;18.22;60.21;97206.78;5030071;28;20184;-62
2023/04/26 10:13:33;;;;;;;3.03;2.83;;;;;;;18.21;60.72;97217.41;5029983;28;20268;-62
2023/04/26 10:16:02;;;;;;;3.97;2.80;;;;;;;18.29;60.54;97239.09;5030015;28;20629;-62
2023/04/26 10:18:30;;;;;;;2.42;2.33;;;;;;;18.14;61.76;97229.63;5029980;28;20332;-62
2023/04/26 10:21:06;;;;;;;2.95;2.60;;;;;;;18.13;64.05;97233.22;5029772;28;20687;-62
2023/04/26 10:23:32;;;;;;;3.78;2.55;;;;;;;17.96;66.12;97231.78;5009777;28;20221;-62
2023/04/26 10:25:57;;;;;;;2.95;2.50;;;;;;;17.93;65.07;97248.66;5010152;28;20618;-62
2023/04/26 10:28:43;;;;;;;3.35;3.05;;;;;;;17.39;81.56;97243.72;5010364;28;20190;-62
2023/04/26 10:31:09;;;;;;;5.03;4.57;;;;;;;16.14;91.62;97173.53;4990427;28;20195;-62
2023/04/26 10:33:34;;;;;;;3.90;3.60;;;;;;;15.50;99.14;97202.41;4990381;28;20193;-62
2023/04/26 10:36:03;;;;;;;4.15;3.78;;;;;;;15.16;100.00;97165.28;4990445;28;20195;-62
2023/04/26 10:38:29;;;;;;;2.63;2.40;;;;;;;14.91;95.99;97200.09;4990307;28;20206;-62
2023/04/26 10:41:15;;;;;;;3.88;2.50;;;;;;;14.82;100.00;97248.72;4990260;28;20556;-62
2023/04/26 10:43:41;;;;;;;2.40;2.30;;;;;;;14.12;100.00;97249.09;4990413;28;20595;-62
2023/04/26 10:46:32;;;;;;;2.10;1.98;;;;;;;13.40;100.00;97247.78;4951483;28;20608;-62
2023/04/26 10:48:58;;;;;;;2.40;2.30;;;;;;;13.02;100.00;97237.75;4951667;29;20271;-62
2023/04/26 10:51:23;;;;;;;4.50;2.03;;;;;;;12.84;100.00;97216.94;4954896;28;20668;-61
2023/04/26 10:53:50;;;;;;;3.28;1.80;;;;;;;12.76;100.00;97229.00;4967552;28;20193;-62
2023/04/26 10:56:22;;;;;;;1.92;1.83;;;;;;;12.57;100.00;97229.97;5013741;28;20202;-61
2023/04/26 10:58:48;;;;;;;3.03;2.20;;;;;;;12.11;100.00;97135.91;5013615;28;20202;-62
2023/04/26 11:01:13;;;;;;;1.90;1.80;;;;;;;12.72;100.00;97219.91;5013355;28;20187;-62
2023/04/26 11:03:44;;;;;;;3.17;2.63;;;;;;;12.53;100.00;97155.97;5013751;28;20309;-62
2023/04/26 11:06:14;;;;;;;2.72;2.55;;;;;;;13.03;100.00;97190.03;5013644;28;20187;-62
2023/04/26 11:08:39;;;;;;;2.20;2.10;;;;;;;13.13;100.00;97159.63;5026860;28;20186;-62
2023/04/26 11:11:12;;;;;;;3.15;2.95;;;;;;;13.03;100.00;97112.13;5033224;28;20194;-62
2023/04/26 11:13:41;;;;;;;2.78;2.58;;;;;;;13.64;100.00;97196.03;5033007;28;20279;-61
2023/04/26 11:16:08;;;;;;;2.78;2.40;;;;;;;13.34;100.00;97111.53;5035198;28;20189;-62
2023/04/26 11:18:36;;;;;;;2.10;2.00;;;;;;;14.12;100.00;97193.66;5055504;28;20170;-62
2023/04/26 11:21:02;;;;;;;2.20;2.00;;;;;;;14.28;100.00;97197.16;5055280;28;20170;-62
2023/04/26 11:23:29;;;;;;;2.70;2.13;;;;;;;14.19;100.00;97153.06;5055311;28;20185;-62
2023/04/26 11:25:59;;;;;;;1.90;1.80;;;;;;;14.43;100.00;97179.16;5055091;28;20664;-60
2023/04/26 11:28:24;;;;;;;2.40;2.20;;;;;;;14.62;100.00;97184.09;5055268;28;20539;-61